Data for 02/12/2007

Time Sea-Level Adjusted Pressure Absolute Pressure Temperature Relative Humidity Dew Point   
(mb) (inHg) (mb) (inHg) (C) (F) (%) (C) (F)
00:05 1010 29.83 839 24.78 -3.4 25.9 93 -4.4 24.2
00:10 1010 29.83 839 24.78 -3.6 25.6 91 -4.8 23.4
00:15 1010 29.83 839 24.78 -3.9 25 92 -5 23
00:20 1010 29.83 839 24.78 -4 24.8 93 -5 23
00:25 1010 29.83 839 24.78 -4.1 24.7 92 -5.1 22.7
00:30 1010 29.83 839 24.78 -4.2 24.4 92 -5.4 22.3
00:35 1010 29.83 839 24.78 -4.4 24 91 -5.7 21.8
00:40 1010 29.83 840 24.81 -4.7 23.6 92 -5.8 21.5
00:45 1010 29.83 840 24.81 -4.9 23.2 91 -6.1 21
00:50 1010 29.83 840 24.81 -5 23.1 90 -6.3 20.6
00:55 1011 29.85 840 24.81 -5.2 22.6 90 -6.6 20.1
01:00 1011 29.85 840 24.81 -5.5 22.1 91 -6.8 19.8
01:05 1011 29.85 840 24.81 -5.6 21.9 91 -6.8 19.7
01:10 1011 29.85 840 24.81 -5.6 21.9 92 -6.7 20
01:15 1011 29.85 840 24.81 -5.5 22 91 -6.8 19.8
01:20 1011 29.85 840 24.81 -5.6 21.8 91 -6.8 19.7
01:25 1011 29.85 840 24.81 -5.7 21.8 92 -6.8 19.7
01:30 1011 29.85 840 24.81 -5.7 21.7 92 -6.8 19.8
01:35 1011 29.85 840 24.81 -5.9 21.5 91 -7.1 19.2
01:40 1011 29.85 840 24.81 -6 21.2 91 -7.2 19
01:45 1011 29.85 840 24.81 -6.1 21 90 -7.5 18.5
01:50 1011 29.85 841 24.83 -6.4 20.5 89 -7.9 17.8
01:55 1011 29.85 841 24.83 -6.9 19.6 90 -8.3 17.1
02:00 1012 29.88 841 24.83 -7 19.3 90 -8.4 16.9
02:05 1012 29.88 841 24.83 -7.2 19.1 90 -8.5 16.6
02:10 1012 29.88 841 24.83 -7.2 19 91 -8.5 16.8
02:15 1012 29.88 841 24.83 -7.2 19 91 -8.5 16.7
02:20 1012 29.88 841 24.83 -7.2 19 90 -8.6 16.6
02:25 1012 29.88 841 24.83 -7.5 18.4 91 -8.7 16.3
02:30 1012 29.88 841 24.83 -7.5 18.5 91 -8.7 16.4
02:35 1012 29.88 841 24.83 -7.6 18.4 92 -8.7 16.3
02:40 1012 29.88 842 24.86 -7.7 18.2 92 -8.8 16.2
02:45 1013 29.91 842 24.86 -7.5 18.5 91 -8.7 16.4
02:50 1013 29.91 842 24.86 -7.4 18.7 90 -8.7 16.3
02:55 1013 29.91 842 24.86 -7.5 18.5 88 -9.2 15.4
03:00 1013 29.91 842 24.86 -7.9 17.7 90 -9.4 15.2
03:05 1013 29.91 842 24.86 -7.9 17.8 90 -9.3 15.3
03:10 1013 29.91 842 24.86 -7.9 17.7 88 -9.6 14.8
03:15 1013 29.91 842 24.86 -8.2 17.2 87 -10 14
03:20 1013 29.91 842 24.86 -8.5 16.6 88 -10.1 13.7
03:25 1013 29.91 842 24.86 -8.6 16.5 88 -10.2 13.6
03:30 1013 29.91 842 24.86 -8.7 16.3 88 -10.3 13.5
03:35 1013 29.91 842 24.86 -8.9 16 89 -10.4 13.3
03:40 1013 29.91 842 24.86 -9 15.9 89 -10.4 13.3
03:45 1013 29.91 843 24.89 -9 15.8 90 -10.3 13.4
03:50 1013 29.91 843 24.89 -8.9 15.9 90 -10.3 13.4
03:55 1014 29.94 843 24.89 -9 15.9 90 -10.3 13.4
04:00 1014 29.94 843 24.89 -9 15.9 90 -10.4 13.3
04:05 1014 29.94 843 24.89 -9.1 15.6 90 -10.5 13
04:10 1014 29.94 843 24.89 -9.2 15.4 90 -10.6 12.9
04:15 1014 29.94 843 24.89 -9.3 15.3 89 -10.8 12.6
04:20 1014 29.94 843 24.89 -9.5 14.8 89 -11.1 12
04:25 1014 29.94 843 24.89 -9.7 14.6 89 -11.1 12
04:30 1014 29.94 843 24.89 -9.7 14.6 89 -11.1 12.1
04:35 1014 29.94 843 24.89 -9.7 14.6 89 -11.2 11.8
04:40 1014 29.94 843 24.89 -9.7 14.5 89 -11.2 11.9
04:45 1014 29.94 844 24.92 -9.7 14.6 90 -11 12.2
04:50 1014 29.94 844 24.92 -9.8 14.5 90 -11.1 12.1
04:55 1015 29.97 844 24.92 -9.8 14.4 90 -11.2 11.9
05:00 1015 29.97 844 24.92 -9.9 14.2 90 -11.3 11.7
05:05 1015 29.97 844 24.92 -9.9 14.1 90 -11.3 11.7
05:10 1015 29.97 844 24.92 -9.9 14.2 90 -11.2 11.9
05:15 1015 29.97 844 24.92 -9.9 14.2 89 -11.4 11.5
05:20 1015 29.97 844 24.92 -10 14 90 -11.4 11.5
05:25 1015 29.97 844 24.92 -9.9 14.1 90 -11.3 11.6
05:30 1015 29.97 844 24.92 -9.9 14.1 90 -11.3 11.6
05:35 1015 29.97 844 24.92 -9.9 14.2 90 -11.3 11.7
05:40 1015 29.97 845 24.95 -9.8 14.3 90 -11.2 11.8
05:45 1015 29.97 845 24.95 -9.9 14.3 90 -11.2 11.8
05:50 1015 29.97 845 24.95 -9.8 14.3 89 -11.3 11.7
05:55 1016 30 845 24.95 -9.9 14.1 89 -11.4 11.4
06:00 1016 30 845 24.95 -10 13.9 89 -11.5 11.4
06:05 1016 30 845 24.95 -10.1 13.9 90 -11.4 11.5
06:10 1016 30 845 24.95 -10.1 13.9 89 -11.5 11.3
06:15 1016 30 845 24.95 -10.1 13.8 89 -11.6 11.2
06:20 1016 30 845 24.95 -10.3 13.5 89 -11.7 10.9
06:25 1016 30 845 24.95 -10.3 13.5 89 -11.7 10.9
06:30 1016 30 845 24.95 -10.4 13.3 89 -11.8 10.7
06:35 1016 30 845 24.95 -10.5 13.2 89 -12 10.4
06:40 1016 30 845 24.95 -10.6 12.9 89 -12.1 10.2
06:45 1016 30 845 24.95 -10.7 12.8 89 -12.2 10.1
06:50 1016 30 846 24.98 -10.8 12.7 89 -12.3 9.9
06:55 1016 30 846 24.98 -10.8 12.5 88 -12.4 9.7
07:00 1017 30.03 846 24.98 -10.9 12.3 89 -12.5 9.6
07:05 1017 30.03 846 24.98 -11 12.2 88 -12.5 9.4
07:10 1017 30.03 846 24.98 -11.1 12 88 -12.7 9.2
07:15 1017 30.03 846 24.98 -11.1 12 88 -12.7 9.1
07:20 1017 30.03 846 24.98 -11.2 11.8 89 -12.7 9.1
07:25 1017 30.03 846 24.98 -11.3 11.7 89 -12.8 9
07:30 1017 30.03 846 24.98 -11.3 11.7 89 -12.8 9
07:35 1017 30.03 846 24.98 -11.3 11.7 90 -12.7 9.2
07:40 1017 30.03 846 24.98 -11.2 11.9 89 -12.7 9.2
07:45 1017 30.03 846 24.98 -11.2 11.8 90 -12.6 9.3
07:50 1017 30.03 847 25.01 -11.1 12 90 -12.5 9.5
07:55 1017 30.03 847 25.01 -11 12.1 89 -12.5 9.5
08:00 1018 30.06 847 25.01 -10.9 12.3 89 -12.4 9.7
08:05 1018 30.06 847 25.01 -10.9 12.4 89 -12.4 9.7
08:10 1018 30.06 847 25.01 -10.9 12.4 88 -12.5 9.6
08:15 1018 30.06 847 25.01 -10.9 12.4 89 -12.4 9.7
08:20 1018 30.06 847 25.01 -10.9 12.4 89 -12.4 9.7
08:25 1018 30.06 847 25.01 -11 12.2 88 -12.6 9.4
08:30 1018 30.06 847 25.01 -10.9 12.3 88 -12.5 9.5
08:35 1018 30.06 847 25.01 -10.9 12.4 88 -12.5 9.5
08:40 1018 30.06 847 25.01 -10.8 12.5 88 -12.4 9.7
08:45 1018 30.06 848 25.04 -10.7 12.7 88 -12.3 9.8
08:50 1018 30.06 848 25.04 -10.6 12.9 88 -12.2 10
08:55 1018 30.06 848 25.04 -10.5 13.1 87 -12.3 9.9
09:00 1019 30.09 848 25.04 -10.5 13.1 87 -12.2 10
09:05 1019 30.09 848 25.04 -10.5 13.2 85 -12.4 9.6
09:10 1019 30.09 848 25.04 -10.6 12.9 86 -12.5 9.6
09:15 1019 30.09 848 25.04 -10.6 13 86 -12.6 9.4
09:20 1019 30.09 848 25.04 -10.5 13.1 86 -12.4 9.7
09:25 1019 30.09 848 25.04 -10.5 13.2 85 -12.5 9.5
09:30 1019 30.09 848 25.04 -10.7 12.8 85 -12.7 9.1
09:35 1019 30.09 848 25.04 -10.7 12.8 86 -12.6 9.4
09:40 1019 30.09 848 25.04 -10.6 13 85 -12.6 9.2
09:45 1019 30.09 848 25.04 -10.6 13 86 -12.5 9.5
09:50 1019 30.09 848 25.04 -10.5 13.1 86 -12.4 9.7
09:55 1019 30.09 848 25.04 -10.3 13.4 85 -12.4 9.7
10:00 1019 30.09 848 25.04 -10.3 13.5 84 -12.4 9.7
10:05 1019 30.09 848 25.04 -10.3 13.5 83 -12.6 9.3
10:10 1019 30.09 849 25.07 -10.2 13.6 84 -12.4 9.7
10:15 1019 30.09 849 25.07 -9.9 14.1 84 -12.2 10.1
10:20 1019 30.09 849 25.07 -9.8 14.4 82 -12.3 9.9
10:25 1020 30.12 849 25.07 -9.9 14.2 84 -12.1 10.3
10:30 1020 30.12 849 25.07 -9.6 14.8 82 -12.1 10.3
10:35 1020 30.12 849 25.07 -9.4 15 81 -12.1 10.3
10:40 1020 30.12 849 25.07 -9.4 15 81 -12.1 10.2
10:45 1020 30.12 849 25.07 -9.6 14.8 80 -12.4 9.7
10:50 1020 30.12 849 25.07 -9.7 14.6 81 -12.4 9.7
10:55 1020 30.12 849 25.07 -9.7 14.6 79 -12.6 9.3
11:00 1020 30.12 849 25.07 -9.5 14.9 79 -12.5 9.5
11:05 1020 30.12 849 25.07 -9.5 14.8 79 -12.5 9.5
11:10 1020 30.12 849 25.07 -9.3 15.3 78 -12.5 9.6
11:15 1020 30.12 849 25.07 -9 15.7 77 -12.4 9.6
11:20 1020 30.12 849 25.07 -8.8 16.2 76 -12.3 9.9
11:25 1020 30.12 849 25.07 -8.7 16.3 74 -12.5 9.5
11:30 1020 30.12 849 25.07 -8.9 16 75 -12.6 9.3
11:35 1020 30.12 849 25.07 -9 15.8 76 -12.5 9.6
11:40 1020 30.12 849 25.07 -8.8 16.2 76 -12.3 9.8
11:45 1020 30.12 849 25.07 -8.6 16.4 74 -12.5 9.5
11:50 1020 30.12 849 25.07 -8.7 16.4 75 -12.4 9.8
11:55 1020 30.12 849 25.07 -8.3 17 74 -12.2 10.1
12:00 1020 30.12 849 25.07 -8.1 17.5 74 -12 10.4
12:05 1020 30.12 849 25.07 -7.9 17.7 71 -12.4 9.7
12:10 1020 30.12 849 25.07 -8 17.6 72 -12.3 9.9
12:15 1020 30.12 849 25.07 -7.9 17.7 70 -12.5 9.5
12:20 1020 30.12 849 25.07 -7.9 17.7 71 -12.3 9.8
12:25 1020 30.12 849 25.07 -7.7 18.2 70 -12.3 9.9
12:30 1020 30.12 849 25.07 -7.5 18.5 70 -12 10.3
12:35 1020 30.12 849 25.07 -7.4 18.6 70 -12 10.4
12:40 1020 30.12 849 25.07 -7.5 18.6 70 -12.1 10.3
12:45 1020 30.12 849 25.07 -7.5 18.4 70 -12 10.4
12:50 1020 30.12 849 25.07 -7.5 18.5 70 -12.1 10.3
12:55 1020 30.12 849 25.07 -7.5 18.5 69 -12.3 9.8
13:00 1020 30.12 849 25.07 -7.2 19.1 68 -12.1 10.2
13:05 1020 30.12 849 25.07 -7.3 18.9 69 -12 10.4
13:10 1020 30.12 849 25.07 -7.4 18.8 69 -12.1 10.2
13:15 1020 30.12 849 25.07 -7.2 19.1 67 -12.2 10
13:20 1020 30.12 849 25.07 -7.3 18.8 69 -12 10.4
13:25 1020 30.12 849 25.07 -7.7 18.2 70 -12.2 10.1
13:30 1020 30.12 849 25.07 -7.7 18.2 72 -11.9 10.6
13:35 1020 30.12 849 25.07 -7.5 18.5 68 -12.4 9.7
13:40 1020 30.12 849 25.07 -7.2 19.1 67 -12.3 9.9
13:45 1020 30.12 849 25.07 -6.7 19.9 67 -11.9 10.5
13:50 1020 30.12 849 25.07 -6.4 20.5 63 -12.2 10
13:55 1020 30.12 849 25.07 -6.9 19.5 65 -12.4 9.7
14:00 1020 30.12 849 25.07 -7.3 18.8 68 -12.2 10
14:05 1020 30.12 849 25.07 -7.4 18.7 68 -12.3 9.9
14:10 1020 30.12 849 25.07 -7.4 18.7 67 -12.6 9.4
14:15 1020 30.12 849 25.07 -7.8 17.9 70 -12.3 9.8
14:20 1020 30.12 849 25.07 -7.6 18.3 71 -12 10.4
14:25 1020 30.12 849 25.07 -7.4 18.7 70 -12 10.4
14:30 1020 30.12 849 25.07 -6.8 19.8 66 -12 10.4
14:35 1020 30.12 849 25.07 -7.1 19.3 67 -12.2 10.1
14:40 1020 30.12 849 25.07 -7.4 18.8 69 -12.1 10.2
14:45 1020 30.12 849 25.07 -7.3 18.8 68 -12.4 9.8
14:50 1020 30.12 849 25.07 -7.8 18 72 -12.1 10.3
14:55 1020 30.12 849 25.07 -8.4 17 75 -12.1 10.3
15:00 1020 30.12 849 25.07 -8.1 17.4 75 -11.8 10.8
15:05 1020 30.12 849 25.07 -8 17.6 74 -11.8 10.7
15:10 1020 30.12 849 25.07 -8.1 17.5 75 -11.7 10.9
15:15 1020 30.12 849 25.07 -7.8 17.9 74 -11.6 11.1
15:20 1020 30.12 849 25.07 -7.8 18 75 -11.6 11.2
15:25 1020 30.12 849 25.07 -7.9 17.7 74 -11.7 10.9
15:30 1020 30.12 849 25.07 -8 17.6 75 -11.7 10.9
15:35 1020 30.12 849 25.07 -8.1 17.3 75 -11.9 10.7
15:40 1020 30.12 849 25.07 -8.1 17.4 77 -11.5 11.3
15:45 1020 30.12 849 25.07 -7.9 17.7 76 -11.5 11.2
15:50 1020 30.12 849 25.07 -7.9 17.8 75 -11.6 11
15:55 1020 30.12 849 25.07 -8 17.6 76 -11.5 11.3
16:00 1020 30.12 849 25.07 -8.2 17.3 77 -11.6 11.2
16:05 1020 30.12 849 25.07 -8.3 17.1 76 -11.7 10.9
16:10 1020 30.12 849 25.07 -8.5 16.7 78 -11.6 11.1
16:15 1020 30.12 850 25.1 -8.4 16.9 77 -11.7 10.9
16:20 1020 30.12 850 25.1 -8.5 16.7 77 -11.8 10.8
16:25 1020 30.12 850 25.1 -8.7 16.4 78 -11.8 10.8
16:30 1020 30.12 850 25.1 -8.9 16 79 -11.9 10.5
16:35 1020 30.12 850 25.1 -9 15.8 79 -12.1 10.3
16:40 1020 30.12 849 25.07 -9.2 15.4 81 -11.9 10.6
16:45 1020 30.12 849 25.07 -9.3 15.3 80 -12.2 10.1
16:50 1020 30.12 849 25.07 -9.2 15.4 79 -12.2 10.1
16:55 1020 30.12 850 25.1 -9.6 14.7 82 -12.1 10.2
17:00 1020 30.12 850 25.1 -9.8 14.4 83 -12.2 10
17:05 1020 30.12 850 25.1 -9.8 14.4 84 -12.1 10.3
17:10 1020 30.12 849 25.07 -9.7 14.6 83 -12.1 10.2
17:15 1020 30.12 849 25.07 -9.8 14.4 84 -12 10.5
17:20 1020 30.12 850 25.1 -10 13.9 85 -12.1 10.2
17:25 1020 30.12 850 25.1 -9.9 14.2 85 -11.9 10.5
17:30 1020 30.12 850 25.1 -9.8 14.3 85 -11.9 10.6
17:35 1020 30.12 850 25.1 -9.9 14.3 86 -11.8 10.7
17:40 1020 30.12 849 25.07 -10 14.1 85 -12 10.4
17:45 1020 30.12 849 25.07 -10.1 13.8 85 -12.2 10.1
17:50 1020 30.12 849 25.07 -10.3 13.5 85 -12.4 9.8
17:55 1020 30.12 850 25.1 -10.5 13.2 79 -13.5 7.8
18:00 1020 30.12 849 25.07 -10.7 12.7 78 -13.9 7
18:05 1020 30.12 850 25.1 -10.8 12.7 79 -13.8 7.2
18:10 1020 30.12 850 25.1 -10.8 12.7 77 -14 6.8
18:15 1020 30.12 850 25.1 -10.9 12.3 78 -14.1 6.6
18:20 1021 30.15 850 25.1 -11 12.2 78 -14.2 6.5
18:25 1020 30.12 850 25.1 -11 12.1 77 -14.3 6.3
18:30 1020 30.12 850 25.1 -11.1 12 77 -14.3 6.2
18:35 1020 30.12 850 25.1 -11.1 12 78 -14.2 6.4
18:40 1021 30.15 850 25.1 -11 12.3 83 -13.3 8.1
18:45 1021 30.15 850 25.1 -10.9 12.4 88 -12.6 9.3
18:50 1021 30.15 850 25.1 -10.9 12.3 89 -12.4 9.8
18:55 1021 30.15 850 25.1 -11.1 12 90 -12.4 9.7
19:00 1021 30.15 850 25.1 -11 12.2 90 -12.3 9.8
19:05 1021 30.15 850 25.1 -10.9 12.3 90 -12.3 9.9
19:10 1021 30.15 850 25.1 -11 12.3 83 -13.3 8.1
19:15 1021 30.15 850 25.1 -11 12.3 80 -13.8 7.2
19:20 1021 30.15 850 25.1 -11.1 12.1 79 -14.1 6.6
19:25 1021 30.15 850 25.1 -11.1 12 78 -14.3 6.3
19:30 1021 30.15 850 25.1 -11.2 11.9 78 -14.3 6.3
19:35 1021 30.15 850 25.1 -11.2 11.9 78 -14.3 6.2
19:40 1021 30.15 850 25.1 -11.3 11.7 78 -14.4 6
19:45 1020 30.12 850 25.1 -11.3 11.6 78 -14.4 6.1
19:50 1021 30.15 850 25.1 -11.3 11.6 80 -14.2 6.5
19:55 1021 30.15 850 25.1 -11.2 11.8 79 -14.2 6.5
20:00 1021 30.15 850 25.1 -11.3 11.7 80 -14.1 6.7
20:05 1021 30.15 850 25.1 -11.2 11.8 80 -14.1 6.7
20:10 1020 30.12 850 25.1 -11.3 11.7 79 -14.2 6.4
20:15 1020 30.12 850 25.1 -11.2 11.8 79 -14.1 6.6
20:20 1021 30.15 850 25.1 -11.2 11.9 80 -14 6.8
20:25 1020 30.12 850 25.1 -11.2 11.9 82 -13.7 7.4
20:30 1021 30.15 850 25.1 -11 12.1 82 -13.5 7.7
20:35 1021 30.15 850 25.1 -11.1 12 84 -13.3 8.1
20:40 1020 30.12 850 25.1 -11.2 11.9 85 -13.3 8.1
20:45 1020 30.12 850 25.1 -11.1 12 86 -13.1 8.5
20:50 1020 30.12 850 25.1 -11.1 12 80 -13.8 7.1
20:55 1020 30.12 850 25.1 -11.4 11.4 80 -14.2 6.4
21:00 1020 30.12 850 25.1 -11.5 11.3 79 -14.4 6.1
21:05 1020 30.12 850 25.1 -11.5 11.3 80 -14.4 6.1
21:10 1020 30.12 850 25.1 -11.5 11.2 80 -14.3 6.3
21:15 1020 30.12 850 25.1 -11.5 11.3 80 -14.3 6.3
21:20 1020 30.12 850 25.1 -11.5 11.3 80 -14.3 6.3
21:25 1020 30.12 849 25.07 -11.5 11.4 80 -14.2 6.4
21:30 1020 30.12 849 25.07 -11.4 11.5 80 -14.1 6.5
21:35 1020 30.12 849 25.07 -11.3 11.6 81 -13.9 6.9
21:40 1020 30.12 850 25.1 -11.3 11.7 82 -13.8 7.2
21:45 1020 30.12 850 25.1 -11.2 11.8 87 -13 8.6
21:50 1020 30.12 850 25.1 -11.3 11.7 89 -12.8 9
21:55 1020 30.12 850 25.1 -11.4 11.5 84 -13.6 7.6
22:00 1020 30.12 850 25.1 -11.5 11.4 81 -14.1 6.6
22:05 1020 30.12 850 25.1 -11.6 11.2 79 -14.5 5.9
22:10 1020 30.12 850 25.1 -11.8 10.7 78 -14.9 5.2
22:15 1020 30.12 849 25.07 -12 10.4 78 -15 5
22:20 1020 30.12 849 25.07 -12.1 10.3 79 -15 5
22:25 1020 30.12 850 25.1 -12 10.3 79 -14.9 5.2
22:30 1020 30.12 850 25.1 -12.1 10.1 79 -15.1 4.8
22:35 1020 30.12 849 25.07 -12.2 10 79 -15.1 4.8
22:40 1020 30.12 849 25.07 -12.2 10 79 -15.2 4.7
22:45 1020 30.12 849 25.07 -12.2 10 78 -15.3 4.5
22:50 1020 30.12 849 25.07 -12.3 9.9 80 -15.1 4.8
22:55 1020 30.12 849 25.07 -12.3 9.9 80 -15.1 4.9
23:00 1020 30.12 849 25.07 -12.3 10 81 -14.9 5.1
23:05 1020 30.12 849 25.07 -12.1 10.1 80 -14.9 5.1
23:10 1020 30.12 849 25.07 -12.1 10.2 80 -15 5
23:15 1020 30.12 849 25.07 -12.1 10.2 79 -15 5
23:20 1020 30.12 849 25.07 -12.3 9.9 79 -15.2 4.6
23:25 1020 30.12 849 25.07 -12.4 9.8 79 -15.3 4.4
23:30 1020 30.12 849 25.07 -12.4 9.6 80 -15.3 4.5
23:35 1020 30.12 849 25.07 -12.5 9.5 80 -15.4 4.4
23:40 1020 30.12 849 25.07 -12.6 9.4 78 -15.6 3.9
23:45 1020 30.12 849 25.07 -12.7 9.2 79 -15.6 3.9
23:50 1020 30.12 849 25.07 -12.8 9 79 -15.7 3.8
23:55 1020 30.12 849 25.07 -12.8 9 80 -15.6 3.9
24:00 1020 30.12 849 25.07 -12.8 9.1 79 -15.6 3.9